createdAt,value
2017-04-09T00:00:52.688Z,12.82
2017-04-09T00:01:52.726Z,9.30
2017-04-09T00:02:52.051Z,10.02
2017-04-09T00:03:51.347Z,11.42
2017-04-09T00:04:50.634Z,10.57
2017-04-09T00:05:49.920Z,12.38
2017-04-09T00:06:49.189Z,14.08
2017-04-09T00:07:48.463Z,8.73
2017-04-09T00:08:47.721Z,10.87
2017-04-09T00:09:47.784Z,10.33
2017-04-09T00:10:47.071Z,15.57
2017-04-09T00:11:46.366Z,14.68
2017-04-09T00:12:45.645Z,9.02
2017-04-09T00:13:44.925Z,9.37
2017-04-09T00:14:44.255Z,11.75
2017-04-09T00:15:43.493Z,9.73
2017-04-09T00:16:42.798Z,10.23
2017-04-09T00:17:42.128Z,9.60
2017-04-09T00:18:41.405Z,8.80
2017-04-09T00:19:40.699Z,10.55
2017-04-09T00:20:39.995Z,10.58
2017-04-09T00:21:39.275Z,11.57
2017-04-09T00:22:38.881Z,11.03
2017-04-09T00:23:38.171Z,8.67
2017-04-09T00:24:44.176Z,9.30
2017-04-09T00:25:43.439Z,12.20
2017-04-09T00:26:42.781Z,16.12
2017-04-09T00:27:42.091Z,9.68
2017-04-09T00:28:41.354Z,11.98
2017-04-09T00:29:40.639Z,9.08
2017-04-09T00:30:42.042Z,10.57
2017-04-09T00:31:41.367Z,12.08
2017-04-09T00:32:40.649Z,10.42
2017-04-09T00:33:39.900Z,12.60
2017-04-09T00:34:40.252Z,9.27
2017-04-09T00:35:39.510Z,8.73
2017-04-09T00:36:39.562Z,10.52
2017-04-09T00:37:38.821Z,9.18
2017-04-09T00:38:41.120Z,8.27
2017-04-09T00:39:40.712Z,12.67
2017-04-09T00:40:39.951Z,10.48
2017-04-09T00:41:39.980Z,9.90
2017-04-09T00:42:39.283Z,9.75
2017-04-09T00:43:38.626Z,10.90
2017-04-09T00:44:38.648Z,10.58
2017-04-09T00:45:38.061Z,10.32
2017-04-09T00:46:37.378Z,11.00
2017-04-09T00:47:36.684Z,10.83
2017-04-09T00:48:36.006Z,10.30
2017-04-09T00:49:36.046Z,12.12
2017-04-09T00:50:35.354Z,10.30
2017-04-09T00:51:34.601Z,9.88
2017-04-09T00:52:34.653Z,10.88
2017-04-09T00:53:33.923Z,9.75
2017-04-09T00:54:33.207Z,11.65
2017-04-09T00:55:32.482Z,11.38
2017-04-09T00:56:31.791Z,10.58
2017-04-09T00:57:31.059Z,13.18
2017-04-09T00:58:30.364Z,14.27
2017-04-09T00:59:29.622Z,9.57
2017-04-09T01:00:29.750Z,10.20
2017-04-09T01:01:29.094Z,9.07
2017-04-09T01:02:28.445Z,10.93
2017-04-09T01:03:27.708Z,11.75
2017-04-09T01:04:28.064Z,10.58
2017-04-09T01:05:27.384Z,10.70
2017-04-09T01:06:26.787Z,12.58
2017-04-09T01:07:26.072Z,11.20
2017-04-09T01:08:25.369Z,12.77
2017-04-09T01:09:24.733Z,10.28
2017-04-09T01:10:24.039Z,12.15
2017-04-09T01:11:23.342Z,10.80
2017-04-09T01:12:22.621Z,14.38
2017-04-09T01:13:22.001Z,11.05
2017-04-09T01:14:21.252Z,16.22
2017-04-09T01:15:20.875Z,16.17
2017-04-09T01:16:20.141Z,11.87
2017-04-09T01:17:19.396Z,15.00
2017-04-09T01:18:19.805Z,14.10
2017-04-09T01:19:19.193Z,12.47
2017-04-09T01:20:18.474Z,16.57
2017-04-09T01:21:17.823Z,14.00
2017-04-09T01:22:17.123Z,15.10
2017-04-09T01:23:16.478Z,13.43
2017-04-09T01:24:16.547Z,12.93
2017-04-09T01:25:15.897Z,12.67
2017-04-09T01:26:15.194Z,12.50
2017-04-09T01:27:14.485Z,13.58
2017-04-09T01:28:13.722Z,12.80
2017-04-09T01:29:13.007Z,12.20
2017-04-09T01:30:12.258Z,13.22
2017-04-09T01:31:11.546Z,13.25
2017-04-09T01:32:10.796Z,14.37
2017-04-09T01:33:10.862Z,12.82
2017-04-09T01:34:10.322Z,11.67
2017-04-09T01:35:09.592Z,14.05
2017-04-09T01:36:09.630Z,10.77
2017-04-09T01:37:08.927Z,11.10
2017-04-09T01:38:08.249Z,13.75
2017-04-09T01:39:07.546Z,12.87
2017-04-09T01:40:06.888Z,11.25
2017-04-09T01:41:06.184Z,12.52
2017-04-09T01:42:05.431Z,12.88
2017-04-09T01:43:05.420Z,12.17
2017-04-09T01:44:04.721Z,12.27
2017-04-09T01:45:03.986Z,16.90
2017-04-09T01:46:03.346Z,12.63
2017-04-09T01:47:02.594Z,12.93
2017-04-09T01:48:02.601Z,11.50
2017-04-09T01:49:02.656Z,14.17
2017-04-09T01:50:01.921Z,15.48
2017-04-09T01:51:01.979Z,19.15
2017-04-09T01:52:01.336Z,14.12
2017-04-09T01:53:00.755Z,16.18
2017-04-09T01:54:00.023Z,15.73
2017-04-09T01:54:59.293Z,13.65
2017-04-09T01:55:58.605Z,23.73
2017-04-09T01:56:57.966Z,18.73
2017-04-09T01:57:58.017Z,19.02
2017-04-09T01:58:57.322Z,20.40
2017-04-09T01:59:56.614Z,19.85
2017-04-09T02:00:55.885Z,16.48
2017-04-09T02:01:55.263Z,17.17
2017-04-09T02:02:54.922Z,13.98
2017-04-09T02:03:56.166Z,14.15
2017-04-09T02:04:56.201Z,17.52
2017-04-09T02:05:56.275Z,16.23
2017-04-09T02:06:56.322Z,16.03
2017-04-09T02:07:55.603Z,16.62
2017-04-09T02:08:54.831Z,16.65
2017-04-09T02:09:54.109Z,21.40
2017-04-09T02:10:53.376Z,14.97
2017-04-09T02:11:52.691Z,17.57
2017-04-09T02:12:51.959Z,14.50
2017-04-09T02:13:51.598Z,18.28
2017-04-09T02:14:50.868Z,14.92
2017-04-09T02:15:50.099Z,17.33
2017-04-09T02:16:50.092Z,14.95
2017-04-09T02:17:49.385Z,14.32
2017-04-09T02:18:49.381Z,16.83
2017-04-09T02:19:48.662Z,17.52
2017-04-09T02:20:47.923Z,15.63
2017-04-09T02:21:47.215Z,13.97
2017-04-09T02:22:46.647Z,20.87
2017-04-09T02:23:45.922Z,19.47
2017-04-09T02:24:45.242Z,19.80
2017-04-09T02:25:45.247Z,15.70
2017-04-09T02:26:45.361Z,18.53
2017-04-09T02:27:44.649Z,17.40
2017-04-09T02:28:44.657Z,16.05
2017-04-09T02:29:44.712Z,16.80
2017-04-09T02:30:43.969Z,17.50
2017-04-09T02:31:43.313Z,16.38
2017-04-09T02:32:42.639Z,20.30
2017-04-09T02:33:42.659Z,17.70
2017-04-09T02:34:41.939Z,19.27
2017-04-09T02:35:41.957Z,16.85
2017-04-09T02:36:42.591Z,19.58
2017-04-09T02:37:41.848Z,18.43
2017-04-09T02:38:41.849Z,21.45
2017-04-09T02:39:42.046Z,19.00
2017-04-09T02:40:41.317Z,21.15
2017-04-09T02:41:40.630Z,18.80
2017-04-09T02:42:39.910Z,19.70
2017-04-09T02:43:39.180Z,19.63
2017-04-09T02:44:38.445Z,16.78
2017-04-09T02:45:37.683Z,16.27
2017-04-09T02:46:37.702Z,17.00
2017-04-09T02:47:37.005Z,18.43
2017-04-09T02:48:37.371Z,23.27
2017-04-09T02:49:36.704Z,17.55
2017-04-09T02:50:36.812Z,18.22
2017-04-09T02:51:37.154Z,19.08
2017-04-09T02:52:39.674Z,21.12
2017-04-09T02:53:40.045Z,20.62
2017-04-09T02:54:39.330Z,20.73
2017-04-09T02:55:38.576Z,16.48
2017-04-09T02:56:38.480Z,16.92
2017-04-09T02:57:37.771Z,17.17
2017-04-09T02:58:37.332Z,20.07
2017-04-09T02:59:36.599Z,19.80
2017-04-09T03:00:36.018Z,17.05
2017-04-09T03:01:35.328Z,16.18
2017-04-09T03:02:34.665Z,18.63
2017-04-09T03:03:33.930Z,21.97
2017-04-09T03:04:33.286Z,20.58
2017-04-09T03:05:32.522Z,21.68
2017-04-09T03:06:32.524Z,18.53
2017-04-09T03:07:31.772Z,17.47
2017-04-09T03:08:31.284Z,17.75
2017-04-09T03:09:30.622Z,17.12
2017-04-09T03:10:29.836Z,19.52
2017-04-09T03:11:29.101Z,16.02
2017-04-09T03:12:28.390Z,17.88
2017-04-09T03:13:27.708Z,17.25
2017-04-09T03:14:27.436Z,18.13
2017-04-09T03:15:26.799Z,14.55
2017-04-09T03:16:26.071Z,18.37
2017-04-09T03:17:25.676Z,19.12
2017-04-09T03:18:24.974Z,14.08
2017-04-09T03:19:24.274Z,19.88
2017-04-09T03:20:23.585Z,15.92
2017-04-09T03:21:22.821Z,16.80
2017-04-09T03:22:22.126Z,18.45
2017-04-09T03:23:21.421Z,15.40
2017-04-09T03:24:20.728Z,15.60
2017-04-09T03:25:20.008Z,14.62
2017-04-09T03:26:19.338Z,15.70
2017-04-09T03:27:19.371Z,14.13
2017-04-09T03:28:18.683Z,16.92
2017-04-09T03:29:17.933Z,17.55
2017-04-09T03:30:17.972Z,14.00
2017-04-09T03:31:17.232Z,15.87
2017-04-09T03:32:16.488Z,15.95
2017-04-09T03:33:15.788Z,19.58
2017-04-09T03:34:15.064Z,15.08
2017-04-09T03:35:14.315Z,15.38
2017-04-09T03:36:13.552Z,14.93
2017-04-09T03:37:12.847Z,19.27
2017-04-09T03:38:12.158Z,17.07
2017-04-09T03:39:12.150Z,18.00
2017-04-09T03:40:12.187Z,17.95
2017-04-09T03:41:11.437Z,16.45
2017-04-09T03:42:10.698Z,14.85
2017-04-09T03:43:09.983Z,21.10
2017-04-09T03:44:09.453Z,15.70
2017-04-09T03:45:08.771Z,14.57
2017-04-09T03:46:08.028Z,15.03
2017-04-09T03:47:07.289Z,21.83
2017-04-09T03:48:07.326Z,17.95
2017-04-09T03:49:06.581Z,14.23
2017-04-09T03:50:06.132Z,15.37
2017-04-09T03:51:05.408Z,16.62
2017-04-09T03:52:04.661Z,15.63
2017-04-09T03:53:05.030Z,19.40
2017-04-09T03:54:04.313Z,14.80
2017-04-09T03:55:03.882Z,17.37
2017-04-09T03:56:03.172Z,16.05
2017-04-09T03:57:02.435Z,18.13
2017-04-09T03:58:02.396Z,20.95
2017-04-09T03:59:01.720Z,20.58
2017-04-09T04:00:01.015Z,16.77
2017-04-09T04:01:00.234Z,17.27
2017-04-09T04:02:00.264Z,15.82
2017-04-09T04:02:59.857Z,19.97
2017-04-09T04:03:59.265Z,15.85
2017-04-09T04:04:58.590Z,19.10
2017-04-09T04:05:57.848Z,20.18
2017-04-09T04:06:57.108Z,18.88
2017-04-09T04:07:56.359Z,17.25
2017-04-09T04:08:55.731Z,16.58
2017-04-09T04:09:54.975Z,21.75
2017-04-09T04:10:54.298Z,19.40
2017-04-09T04:11:53.542Z,20.22
2017-04-09T04:12:53.558Z,19.15
2017-04-09T04:13:54.174Z,20.83
2017-04-09T04:14:53.440Z,20.93
2017-04-09T04:15:52.688Z,21.38
2017-04-09T04:16:51.955Z,20.28
2017-04-09T04:17:51.926Z,18.80
2017-04-09T04:18:51.970Z,17.33
2017-04-09T04:19:51.227Z,16.95
2017-04-09T04:20:51.236Z,17.30
2017-04-09T04:21:51.223Z,20.55
2017-04-09T04:22:50.460Z,20.13
2017-04-09T04:23:49.754Z,19.32
2017-04-09T04:24:49.030Z,23.43
2017-04-09T04:25:48.317Z,17.40
2017-04-09T04:26:47.802Z,21.38
2017-04-09T04:27:47.050Z,20.43
2017-04-09T04:28:46.378Z,20.02
2017-04-09T04:29:46.402Z,20.38
2017-04-09T04:30:45.660Z,19.17
2017-04-09T04:31:44.957Z,22.98
2017-04-09T04:32:45.523Z,18.98
2017-04-09T04:33:45.130Z,20.27
2017-04-09T04:34:44.524Z,20.03
2017-04-09T04:35:43.811Z,18.77
2017-04-09T04:36:43.055Z,19.02
2017-04-09T04:37:43.076Z,17.65
2017-04-09T04:38:42.491Z,21.72
2017-04-09T04:39:41.771Z,20.55
2017-04-09T04:40:41.057Z,19.55
2017-04-09T04:41:40.334Z,18.85
2017-04-09T04:42:40.374Z,26.02
2017-04-09T04:43:39.638Z,17.12
2017-04-09T04:44:38.945Z,19.07
2017-04-09T04:45:38.232Z,19.70
2017-04-09T04:46:37.518Z,18.08
2017-04-09T04:47:36.758Z,18.67
2017-04-09T04:48:36.084Z,22.42
2017-04-09T04:49:35.446Z,18.33
2017-04-09T04:50:34.991Z,22.82
2017-04-09T04:51:34.280Z,17.83
2017-04-09T04:52:51.078Z,17.35
2017-04-09T04:53:50.310Z,20.45
2017-04-09T04:54:49.633Z,18.47
2017-04-09T04:55:49.655Z,18.27
2017-04-09T04:56:48.972Z,18.47
2017-04-09T04:57:48.259Z,19.47
2017-04-09T04:58:47.575Z,17.47
2017-04-09T04:59:46.876Z,17.97
2017-04-09T05:00:46.143Z,17.40
2017-04-09T05:01:45.483Z,21.55
2017-04-09T05:02:45.510Z,16.98
2017-04-09T05:03:44.791Z,16.05
2017-04-09T05:04:44.091Z,21.07
2017-04-09T05:05:43.361Z,18.17
2017-04-09T05:06:42.621Z,18.80
2017-04-09T05:07:41.916Z,17.83
2017-04-09T05:08:41.920Z,20.58
2017-04-09T05:09:41.248Z,19.45
2017-04-09T05:10:40.542Z,19.70
2017-04-09T05:11:39.822Z,23.77
2017-04-09T05:12:39.109Z,21.20
2017-04-09T05:13:38.411Z,20.50
2017-04-09T05:14:37.742Z,20.50
2017-04-09T05:15:37.025Z,21.35
2017-04-09T05:16:36.445Z,21.20
2017-04-09T05:17:36.461Z,19.02
2017-04-09T05:18:36.439Z,21.25
2017-04-09T05:19:35.746Z,19.23
2017-04-09T05:20:35.009Z,24.10
2017-04-09T05:21:34.260Z,23.30
2017-04-09T05:22:33.563Z,21.42
2017-04-09T05:23:32.866Z,22.25
2017-04-09T05:24:32.134Z,25.52
2017-04-09T05:25:31.419Z,24.35
2017-04-09T05:26:30.685Z,23.20
2017-04-09T05:27:30.693Z,22.30
2017-04-09T05:28:30.866Z,19.72
2017-04-09T05:29:30.215Z,23.88
2017-04-09T05:30:29.535Z,21.35
2017-04-09T05:31:28.893Z,21.12
2017-04-09T05:32:28.171Z,22.67
2017-04-09T05:33:28.212Z,26.17
2017-04-09T05:34:27.569Z,26.28
2017-04-09T05:35:27.632Z,21.23
2017-04-09T05:36:27.063Z,25.43
2017-04-09T05:37:26.368Z,20.30
2017-04-09T05:38:26.445Z,21.43
2017-04-09T05:39:25.720Z,23.33
2017-04-09T05:40:25.057Z,22.65
2017-04-09T05:41:25.082Z,21.78
2017-04-09T05:42:24.356Z,25.53
2017-04-09T05:43:23.649Z,20.17
2017-04-09T05:44:22.913Z,21.08
2017-04-09T05:45:22.950Z,27.40
2017-04-09T05:46:22.303Z,24.50
2017-04-09T05:47:21.569Z,26.60
2017-04-09T05:48:21.561Z,28.50
2017-04-09T05:49:21.209Z,28.43
2017-04-09T05:50:21.223Z,25.48
2017-04-09T05:51:21.223Z,24.88
2017-04-09T05:52:21.222Z,26.47
2017-04-09T05:53:20.527Z,24.70
2017-04-09T05:54:19.789Z,26.52
2017-04-09T05:55:19.081Z,22.65
2017-04-09T05:56:18.414Z,27.05
2017-04-09T05:57:17.697Z,27.23
2017-04-09T05:58:16.983Z,29.80
2017-04-09T05:59:17.026Z,29.27
2017-04-09T06:00:16.617Z,30.98
2017-04-09T06:01:16.167Z,28.40
2017-04-09T06:02:15.466Z,25.80
2017-04-09T06:03:15.551Z,30.10
2017-04-09T06:04:14.806Z,23.88
2017-04-09T06:05:14.095Z,23.02
2017-04-09T06:06:13.426Z,32.33
2017-04-09T06:07:12.707Z,41.45
2017-04-09T06:08:11.953Z,30.37
2017-04-09T06:09:12.267Z,27.72
2017-04-09T06:10:11.541Z,26.38
2017-04-09T06:11:10.938Z,34.05
2017-04-09T06:12:10.316Z,36.32
2017-04-09T06:13:10.352Z,42.38
2017-04-09T06:14:09.671Z,31.57
2017-04-09T06:15:08.954Z,35.47
2017-04-09T06:16:08.219Z,48.82
2017-04-09T06:17:07.509Z,44.88
2017-04-09T06:18:06.786Z,43.65
2017-04-09T06:19:06.098Z,43.97
2017-04-09T06:20:05.477Z,62.35
2017-04-09T06:21:04.780Z,65.88
2017-04-09T06:22:04.075Z,55.42
2017-04-09T06:23:03.351Z,50.72
2017-04-09T06:24:02.595Z,54.75
2017-04-09T06:25:02.852Z,61.92
2017-04-09T06:26:02.219Z,52.32
2017-04-09T06:27:02.308Z,56.25
2017-04-09T06:28:01.668Z,64.35
2017-04-09T06:29:00.984Z,66.63
2017-04-09T06:30:00.264Z,65.63
2017-04-09T06:30:59.620Z,64.55
2017-04-09T06:31:59.011Z,70.82
2017-04-09T06:32:58.431Z,65.88
2017-04-09T06:33:57.720Z,57.00
2017-04-09T06:34:57.297Z,66.47
2017-04-09T06:35:56.625Z,57.72
2017-04-09T06:36:56.062Z,58.22
2017-04-09T06:37:55.394Z,59.22
2017-04-09T06:38:55.591Z,61.12
2017-04-09T06:39:54.913Z,57.85
2017-04-09T06:40:54.260Z,46.70
2017-04-09T06:41:53.666Z,59.02
2017-04-09T06:42:53.150Z,56.88
2017-04-09T06:43:52.538Z,50.58
2017-04-09T06:44:52.129Z,59.18
2017-04-09T06:45:51.490Z,52.83
2017-04-09T06:46:50.890Z,49.30
2017-04-09T06:47:50.289Z,48.30
2017-04-09T06:48:49.641Z,64.45
2017-04-09T06:49:49.007Z,52.40
2017-04-09T06:50:48.309Z,49.37
2017-04-09T06:51:47.780Z,53.23
2017-04-09T06:52:47.138Z,50.12
2017-04-09T06:53:46.435Z,57.63
2017-04-09T06:54:45.815Z,58.53
2017-04-09T06:55:45.891Z,58.62
2017-04-09T06:56:45.316Z,60.37
2017-04-09T06:57:44.641Z,66.30
2017-04-09T06:58:43.962Z,73.20
2017-04-09T06:59:43.341Z,67.03
2017-04-09T07:00:42.881Z,58.25
2017-04-09T07:01:42.447Z,59.93
2017-04-09T07:02:48.066Z,55.48
2017-04-09T07:03:47.439Z,58.97
2017-04-09T07:04:46.773Z,51.52
2017-04-09T07:05:46.148Z,55.12
2017-04-09T07:06:45.546Z,57.15
2017-04-09T07:07:44.950Z,52.87
2017-04-09T07:08:44.317Z,53.72
2017-04-09T07:09:43.694Z,54.05
2017-04-09T07:10:43.927Z,58.85
2017-04-09T07:11:43.845Z,48.48
2017-04-09T07:12:43.271Z,50.30
2017-04-09T07:13:42.645Z,45.08
2017-04-09T07:14:44.789Z,39.67
2017-04-09T07:15:44.111Z,41.83
2017-04-09T07:16:48.109Z,43.25
2017-04-09T07:17:47.429Z,42.48
2017-04-09T07:18:46.775Z,40.05
2017-04-09T07:19:46.109Z,38.55
2017-04-09T07:20:45.510Z,37.77
2017-04-09T07:21:45.144Z,45.50
2017-04-09T07:22:44.511Z,30.87
2017-04-09T07:23:43.874Z,37.32
2017-04-09T07:24:43.163Z,35.37
2017-04-09T07:25:42.452Z,45.37
2017-04-09T07:26:41.839Z,35.13
2017-04-09T07:27:41.375Z,30.90
2017-04-09T07:28:40.902Z,31.77
2017-04-09T07:29:40.275Z,36.32
2017-04-09T07:30:39.762Z,31.58
2017-04-09T07:31:39.064Z,34.23
2017-04-09T07:32:38.447Z,35.85
2017-04-09T07:33:37.776Z,34.62
2017-04-09T07:34:44.626Z,37.90
2017-04-09T07:35:43.981Z,32.10
2017-04-09T07:36:43.428Z,32.43
2017-04-09T07:37:42.729Z,34.90
2017-04-09T07:38:42.897Z,34.42
2017-04-09T07:39:42.244Z,34.25
2017-04-09T07:40:42.300Z,31.65
2017-04-09T07:41:41.666Z,32.83
2017-04-09T07:42:41.091Z,30.15
2017-04-09T07:43:40.431Z,29.40
2017-04-09T07:44:39.768Z,25.48
2017-04-09T07:45:39.156Z,26.17
2017-04-09T07:46:38.580Z,26.80
2017-04-09T07:47:38.790Z,28.45
2017-04-09T07:48:38.192Z,26.42
2017-04-09T07:49:38.293Z,25.50
2017-04-09T07:50:38.723Z,29.87
2017-04-09T07:51:38.017Z,29.00
2017-04-09T07:52:37.510Z,29.82
2017-04-09T07:53:36.864Z,27.35
2017-04-09T07:54:36.206Z,26.43
2017-04-09T07:55:35.765Z,27.07
2017-04-09T07:56:35.106Z,26.67
2017-04-09T07:57:34.475Z,30.92
2017-04-09T07:58:34.098Z,27.85
2017-04-09T07:59:33.438Z,26.83
2017-04-09T08:00:32.740Z,32.88
2017-04-09T08:01:32.139Z,24.22
2017-04-09T08:02:32.896Z,30.77
2017-04-09T08:03:32.225Z,29.95
2017-04-09T08:04:31.646Z,31.18
2017-04-09T08:05:30.952Z,30.88
2017-04-09T08:06:30.319Z,32.97
2017-04-09T08:07:30.522Z,34.17
2017-04-09T08:08:29.929Z,30.32
2017-04-09T08:09:30.237Z,29.37
2017-04-09T08:10:30.411Z,32.92
2017-04-09T08:11:29.793Z,32.37
2017-04-09T08:12:29.148Z,34.83
2017-04-09T08:13:28.542Z,29.25
2017-04-09T08:14:27.927Z,33.22
2017-04-09T08:15:27.667Z,28.53
2017-04-09T08:16:27.009Z,30.37
2017-04-09T08:17:26.398Z,29.67
2017-04-09T08:18:25.772Z,30.50
2017-04-09T08:19:25.071Z,31.85
2017-04-09T08:20:25.146Z,28.37
2017-04-09T08:21:24.540Z,24.38
2017-04-09T08:22:23.788Z,27.05
2017-04-09T08:23:23.162Z,27.43
2017-04-09T08:24:23.231Z,27.18
2017-04-09T08:25:22.553Z,27.65
2017-04-09T08:26:21.891Z,26.22
2017-04-09T08:27:21.213Z,27.95
2017-04-09T08:28:20.557Z,25.75
2017-04-09T08:29:19.891Z,27.52
2017-04-09T08:30:19.755Z,21.18
2017-04-09T08:31:19.836Z,21.65
2017-04-09T08:32:19.956Z,24.55
2017-04-09T08:33:19.439Z,25.52
2017-04-09T08:34:18.797Z,24.20
2017-04-09T08:35:18.116Z,21.43
2017-04-09T08:36:18.162Z,24.20
2017-04-09T08:37:18.310Z,25.05
2017-04-09T08:38:18.011Z,22.03
2017-04-09T08:39:17.340Z,19.92
2017-04-09T08:40:16.655Z,23.08
2017-04-09T08:41:15.981Z,21.05
2017-04-09T08:42:15.347Z,19.63
2017-04-09T08:43:14.662Z,21.93
2017-04-09T08:44:14.022Z,21.73
2017-04-09T08:45:14.411Z,23.13
2017-04-09T08:46:13.751Z,22.67
2017-04-09T08:47:13.083Z,24.53
2017-04-09T08:48:12.395Z,24.47
2017-04-09T08:49:11.733Z,22.75
2017-04-09T08:50:11.091Z,22.18
2017-04-09T08:51:10.408Z,18.30
2017-04-09T08:52:40.763Z,25.58
2017-04-09T08:53:40.131Z,21.72
2017-04-09T08:54:41.006Z,23.58
2017-04-09T08:55:40.326Z,26.80
2017-04-09T08:56:39.703Z,20.88
2017-04-09T08:57:39.021Z,19.83
2017-04-09T08:58:38.367Z,20.68
2017-04-09T08:59:37.671Z,28.18
2017-04-09T09:00:37.022Z,23.75
2017-04-09T09:01:37.092Z,23.50
2017-04-09T09:02:36.768Z,21.58
2017-04-09T09:03:41.921Z,22.15
2017-04-09T09:04:41.374Z,22.95
2017-04-09T09:05:40.678Z,22.62
2017-04-09T09:06:40.127Z,22.13
2017-04-09T09:07:45.231Z,22.80
2017-04-09T09:08:48.826Z,18.18
2017-04-09T09:09:48.276Z,22.73
2017-04-09T09:10:48.285Z,17.87
2017-04-09T09:11:47.651Z,21.15
2017-04-09T09:12:47.751Z,23.28
2017-04-09T09:13:48.177Z,23.88
2017-04-09T09:14:48.215Z,18.18
2017-04-09T09:15:47.620Z,19.27
2017-04-09T09:16:47.005Z,25.38
2017-04-09T09:17:46.347Z,19.00
2017-04-09T09:18:47.045Z,20.87
2017-04-09T09:19:46.401Z,20.77
2017-04-09T09:20:45.732Z,19.65
2017-04-09T09:21:45.800Z,23.53
2017-04-09T09:22:45.146Z,18.40
2017-04-09T09:23:45.982Z,21.87
2017-04-09T09:24:46.056Z,23.60
2017-04-09T09:25:45.377Z,20.13
2017-04-09T09:26:44.697Z,19.38
2017-04-09T09:27:44.024Z,21.03
2017-04-09T09:28:43.448Z,22.63
2017-04-09T09:29:42.843Z,20.75
2017-04-09T09:30:42.910Z,19.43
2017-04-09T09:31:42.275Z,22.48
2017-04-09T09:32:41.780Z,22.32
2017-04-09T09:33:41.189Z,22.95
2017-04-09T09:34:40.555Z,21.45
2017-04-09T09:35:39.898Z,22.90
2017-04-09T09:36:39.263Z,21.98
2017-04-09T09:37:38.641Z,20.15
2017-04-09T09:38:38.492Z,21.28
2017-04-09T09:39:37.802Z,25.68
2017-04-09T09:40:38.505Z,23.22
2017-04-09T09:41:37.824Z,20.70
2017-04-09T09:42:38.666Z,25.10
2017-04-09T09:43:38.202Z,24.03
2017-04-09T09:44:37.938Z,23.38
2017-04-09T09:45:37.423Z,23.45
2017-04-09T09:46:36.779Z,24.72
2017-04-09T09:47:36.132Z,23.47
2017-04-09T09:48:35.428Z,20.10
2017-04-09T09:49:34.815Z,21.62
2017-04-09T09:50:34.196Z,20.18
2017-04-09T09:51:34.670Z,22.40
2017-04-09T09:52:33.974Z,28.18
2017-04-09T09:53:33.392Z,22.90
2017-04-09T09:54:33.485Z,19.57
2017-04-09T09:55:32.858Z,22.68
2017-04-09T09:56:32.201Z,24.67
2017-04-09T09:57:31.500Z,22.25
2017-04-09T09:58:30.884Z,28.53
2017-04-09T09:59:30.841Z,23.08
2017-04-09T10:00:30.431Z,21.12
2017-04-09T10:01:29.740Z,22.73
2017-04-09T10:02:31.525Z,22.27
2017-04-09T10:03:30.886Z,20.08
2017-04-09T10:04:30.787Z,18.48
2017-04-09T10:05:30.244Z,20.60
2017-04-09T10:06:39.992Z,21.72
2017-04-09T10:07:39.544Z,20.48
2017-04-09T10:08:38.904Z,21.42
2017-04-09T10:09:38.778Z,22.58
2017-04-09T10:10:38.152Z,22.67
2017-04-09T10:11:37.461Z,23.70
2017-04-09T10:12:37.598Z,24.18
2017-04-09T10:13:37.039Z,20.27
2017-04-09T10:14:36.577Z,23.47
2017-04-09T10:15:35.973Z,19.72
2017-04-09T10:16:35.379Z,21.03
2017-04-09T10:17:35.502Z,23.07
2017-04-09T10:18:34.828Z,23.22
2017-04-09T10:19:34.161Z,24.28
2017-04-09T10:20:33.801Z,24.23
2017-04-09T10:29:13.774Z,20.08
2017-04-09T10:30:13.182Z,22.32
2017-04-09T10:31:12.540Z,21.35
2017-04-09T10:32:12.675Z,19.78
2017-04-09T10:33:12.107Z,19.80
2017-04-09T10:34:11.492Z,18.22
2017-04-09T10:35:11.323Z,18.12
2017-04-09T10:36:10.731Z,18.67
2017-04-09T10:37:10.784Z,20.15
2017-04-09T10:38:10.154Z,18.46
2017-04-09T10:39:09.564Z,17.58
2017-04-09T10:40:08.915Z,18.87
2017-04-09T10:41:08.349Z,19.93
2017-04-09T10:42:07.675Z,18.53
2017-04-09T10:43:06.991Z,18.40
2017-04-09T10:44:06.298Z,20.07
2017-04-09T10:45:05.741Z,18.48
2017-04-09T10:46:05.091Z,19.25
2017-04-09T10:47:04.445Z,16.82
2017-04-09T10:48:03.803Z,19.32
2017-04-09T10:49:03.129Z,18.48
2017-04-09T10:50:02.558Z,21.53
2017-04-09T10:51:02.029Z,17.90
2017-04-09T10:52:01.917Z,19.70
2017-04-09T10:53:01.253Z,20.25
2017-04-09T10:54:00.643Z,17.97
2017-04-09T10:55:00.018Z,19.35
2017-04-09T10:55:59.421Z,20.05
2017-04-09T10:56:58.811Z,19.13
2017-04-09T10:57:58.278Z,22.90
2017-04-09T10:58:57.983Z,17.98
2017-04-09T10:59:57.334Z,18.43
2017-04-09T11:00:56.756Z,18.92
2017-04-09T11:01:56.184Z,20.48
2017-04-09T11:02:55.566Z,20.52
2017-04-09T11:03:54.992Z,17.75
2017-04-09T11:04:55.175Z,18.43
2017-04-09T11:05:54.612Z,19.40
2017-04-09T11:06:54.008Z,18.07
2017-04-09T11:07:53.326Z,20.23
2017-04-09T11:08:53.435Z,18.60
2017-04-09T11:09:53.504Z,17.88
2017-04-09T11:10:52.903Z,18.00
2017-04-09T11:11:52.424Z,20.15
2017-04-09T11:12:52.537Z,18.32
2017-04-09T11:13:51.972Z,21.58
2017-04-09T11:14:51.520Z,19.68
2017-04-09T11:15:51.312Z,18.22
2017-04-09T11:16:50.858Z,19.60
2017-04-09T11:17:50.233Z,18.15
2017-04-09T11:18:49.600Z,19.65
2017-04-09T11:19:49.021Z,19.55
2017-04-09T11:20:48.738Z,20.00
2017-04-09T11:21:48.297Z,17.65
2017-04-09T11:22:47.719Z,20.50
2017-04-09T11:23:47.057Z,18.88
2017-04-09T11:24:46.439Z,23.50
2017-04-09T11:25:45.731Z,20.05
2017-04-09T11:26:45.112Z,18.43
2017-04-09T11:27:44.535Z,17.80
2017-04-09T11:28:43.843Z,19.20
2017-04-09T11:29:43.216Z,17.87
2017-04-09T11:30:42.606Z,19.23
2017-04-09T11:31:47.328Z,18.07
2017-04-09T11:32:46.753Z,18.08
2017-04-09T11:33:46.576Z,19.57
2017-04-09T11:34:45.871Z,21.80
2017-04-09T11:35:45.230Z,18.17
2017-04-09T11:36:45.518Z,16.40
2017-04-09T11:37:45.008Z,18.13
2017-04-09T11:38:44.315Z,17.53
2017-04-09T11:39:43.690Z,18.38
2017-04-09T11:40:43.110Z,17.35
2017-04-09T11:41:43.234Z,17.80
2017-04-09T11:42:42.629Z,19.23
2017-04-09T11:43:41.972Z,16.67
2017-04-09T11:44:41.264Z,16.57
2017-04-09T11:45:40.635Z,21.72
2017-04-09T11:46:40.003Z,19.42
2017-04-09T11:47:39.367Z,21.80
2017-04-09T11:48:39.488Z,18.70
2017-04-09T11:49:39.055Z,17.20
2017-04-09T11:50:38.473Z,16.98
2017-04-09T11:51:37.867Z,18.45
2017-04-09T11:52:38.037Z,19.17
2017-04-09T11:53:37.391Z,18.68
2017-04-09T11:54:36.727Z,17.68
2017-04-09T11:55:36.135Z,20.82
2017-04-09T11:56:35.790Z,19.13
2017-04-09T11:57:35.212Z,18.15
2017-04-09T11:58:34.566Z,18.65
2017-04-09T11:59:33.918Z,20.13
2017-04-09T12:00:33.940Z,20.33
2017-04-09T12:01:33.267Z,18.72
2017-04-09T12:02:32.639Z,16.85
2017-04-09T12:03:32.014Z,15.55
2017-04-09T12:04:31.604Z,16.42
2017-04-09T12:05:31.738Z,19.17
2017-04-09T12:06:31.187Z,17.47
2017-04-09T12:07:31.360Z,16.52
2017-04-09T12:08:30.704Z,19.58
2017-04-09T12:09:30.789Z,18.47
2017-04-09T12:10:30.180Z,19.63
2017-04-09T12:11:29.522Z,18.37
2017-04-09T12:12:28.914Z,18.92
2017-04-09T12:13:28.309Z,20.63
2017-04-09T12:14:28.462Z,19.02
2017-04-09T12:15:28.854Z,17.53
2017-04-09T12:16:29.995Z,19.65
2017-04-09T12:17:29.451Z,20.53
2017-04-09T12:18:29.180Z,22.53
2017-04-09T12:19:28.683Z,18.37
2017-04-09T12:20:28.171Z,18.45
2017-04-09T12:21:27.583Z,21.87
2017-04-09T12:22:27.439Z,20.93
2017-04-09T12:23:26.788Z,18.33
2017-04-09T12:24:26.269Z,19.80
2017-04-09T12:25:25.789Z,18.28
2017-04-09T12:26:25.427Z,17.90
2017-04-09T12:27:26.319Z,16.85
2017-04-09T12:28:27.221Z,18.10
2017-04-09T12:29:26.979Z,16.87
2017-04-09T12:30:43.781Z,17.23
2017-04-09T12:31:43.313Z,15.87
2017-04-09T12:32:48.435Z,17.45
2017-04-09T12:33:56.253Z,19.12
2017-04-09T12:34:56.081Z,16.05
2017-04-09T12:35:58.353Z,17.38
2017-04-09T12:37:07.780Z,18.62
2017-04-09T12:38:08.596Z,17.97
2017-04-09T12:39:09.621Z,17.23
2017-04-09T12:40:09.976Z,16.83
2017-04-09T12:41:09.419Z,17.67
2017-04-09T12:42:12.296Z,14.85
2017-04-09T12:43:12.641Z,15.68
2017-04-09T12:44:13.040Z,16.83
2017-04-09T12:45:12.833Z,15.97
2017-04-09T12:46:12.210Z,15.32
2017-04-09T12:47:12.272Z,17.03
2017-04-09T12:48:11.610Z,15.55
2017-04-09T12:49:11.665Z,14.88
2017-04-09T12:50:10.967Z,17.75
2017-04-09T12:51:10.311Z,15.78
2017-04-09T12:52:10.442Z,15.68
2017-04-09T12:53:09.853Z,15.63
2017-04-09T12:54:09.156Z,16.80
2017-04-09T12:55:09.273Z,19.12
2017-04-09T12:56:08.602Z,16.05
2017-04-09T12:57:08.668Z,16.48
2017-04-09T12:58:08.040Z,17.47